Time,TemperatureF,DewpointF,PressureIn,WindDirection,WindDirectionDegrees,WindSpeedMPH,WindSpeedGustMPH,Humidity,HourlyPrecipIn,Conditions,Clouds,dailyrainin,SoftwareType,DateUTC
2013-09-28 00:02:00,47.0,45.0,-100.00,North,0,24.0,33.0,95,-99.99,,,-99.99,,2013-09-28 00:02:00,
2013-09-28 00:12:00,47.0,45.0,-100.00,North,0,24.0,33.0,95,-99.99,,,-99.99,,2013-09-28 00:12:00,
2013-09-28 00:22:00,46.0,45.0,-100.00,North,355,24.0,34.0,93,-99.99,,,-99.99,,2013-09-28 00:22:00,
2013-09-28 00:32:00,46.0,45.0,-100.00,North,355,24.0,34.0,93,-99.99,,,-99.99,,2013-09-28 00:32:00,
2013-09-28 00:42:00,46.0,45.0,-100.00,North,355,24.0,34.0,93,-99.99,,,-99.99,,2013-09-28 00:42:00,
2013-09-28 00:52:00,46.0,45.0,-100.00,North,350,17.0,32.0,94,-99.99,,,-99.99,,2013-09-28 00:52:00,
2013-09-28 01:01:00,46.0,45.0,-100.00,North,350,17.0,32.0,94,-99.99,,,-99.99,,2013-09-28 01:01:00,
2013-09-28 01:12:00,46.0,45.0,-100.00,North,350,17.0,32.0,94,-99.99,,,-99.99,,2013-09-28 01:12:00,
2013-09-28 01:21:00,46.0,45.0,-100.00,North,0,19.0,29.0,94,-99.99,,,-99.99,,2013-09-28 01:21:00,
2013-09-28 01:32:00,46.0,45.0,-100.00,North,0,19.0,29.0,94,-99.99,,,-99.99,,2013-09-28 01:32:00,
2013-09-28 01:42:00,46.0,45.0,-100.00,North,0,19.0,29.0,94,-99.99,,,-99.99,,2013-09-28 01:42:00,
2013-09-28 01:50:00,47.0,44.0,-100.00,North,0,18.0,29.0,90,-99.99,,,-99.99,,2013-09-28 01:50:00,
2013-09-28 01:52:00,46.0,44.0,-100.00,North,0,26.0,39.0,90,-99.99,,,-99.99,,2013-09-28 01:52:00,
2013-09-28 02:03:00,46.0,44.0,-100.00,North,0,26.0,39.0,90,-99.99,,,-99.99,,2013-09-28 02:03:00,
2013-09-28 02:12:00,46.0,44.0,-100.00,North,0,26.0,39.0,90,-99.99,,,-99.99,,2013-09-28 02:12:00,
2013-09-28 02:22:00,47.0,44.0,-100.00,North,0,18.0,29.0,90,-99.99,,,-99.99,,2013-09-28 02:22:00,
2013-09-28 02:32:00,47.0,44.0,-100.00,North,0,18.0,29.0,90,-99.99,,,-99.99,,2013-09-28 02:32:00,
2013-09-28 02:42:00,47.0,44.0,-100.00,North,0,18.0,29.0,90,-99.99,,,-99.99,,2013-09-28 02:42:00,
2013-09-28 03:22:00,47.0,44.0,-100.00,North,0,22.0,31.0,88,-99.99,,,-99.99,,2013-09-28 03:22:00,
2013-09-28 03:34:00,47.0,44.0,-100.00,North,0,22.0,31.0,88,-99.99,,,-99.99,,2013-09-28 03:34:00,
2013-09-28 03:40:00,46.0,43.0,-100.00,North,0,18.0,29.0,89,-99.99,,,-99.99,,2013-09-28 03:40:00,
2013-09-28 03:45:00,47.0,44.0,-100.00,North,0,22.0,31.0,88,-99.99,,,-99.99,,2013-09-28 03:45:00,
2013-09-28 03:55:00,47.0,43.0,-100.00,North,355,16.0,30.0,87,-99.99,,,-99.99,,2013-09-28 03:55:00,
2013-09-28 04:04:00,47.0,43.0,-100.00,North,355,16.0,30.0,87,-99.99,,,-99.99,,2013-09-28 04:04:00,
2013-09-28 04:13:00,47.0,43.0,-100.00,North,355,16.0,30.0,87,-99.99,,,-99.99,,2013-09-28 04:13:00,
2013-09-28 04:24:00,46.0,43.0,-100.00,North,0,18.0,29.0,89,-99.99,,,-99.99,,2013-09-28 04:24:00,
2013-09-28 04:34:00,46.0,43.0,-100.00,North,0,18.0,29.0,89,-99.99,,,-99.99,,2013-09-28 04:34:00,
2013-09-28 04:54:00,47.0,43.0,-100.00,North,0,17.0,23.0,86,-99.99,,,-99.99,,2013-09-28 04:54:00,
2013-09-28 05:03:00,47.0,43.0,-100.00,North,0,17.0,23.0,86,-99.99,,,-99.99,,2013-09-28 05:03:00,
2013-09-28 05:13:00,47.0,43.0,-100.00,North,0,17.0,23.0,86,-99.99,,,-99.99,,2013-09-28 05:13:00,
2013-09-28 05:22:00,47.0,42.0,-100.00,North,0,18.0,28.0,82,-99.99,,,-99.99,,2013-09-28 05:22:00,
2013-09-28 05:34:00,47.0,42.0,-100.00,North,0,18.0,28.0,82,-99.99,,,-99.99,,2013-09-28 05:34:00,
2013-09-28 05:43:00,47.0,42.0,-100.00,North,0,18.0,28.0,82,-99.99,,,-99.99,,2013-09-28 05:43:00,
2013-09-28 05:52:00,48.0,42.0,-100.00,North,5,16.0,24.0,78,-99.99,,,-99.99,,2013-09-28 05:52:00,
2013-09-28 06:02:00,48.0,42.0,-100.00,North,5,16.0,24.0,78,-99.99,,,-99.99,,2013-09-28 06:02:00,
2013-09-28 06:13:00,48.0,42.0,-100.00,North,5,16.0,24.0,78,-99.99,,,-99.99,,2013-09-28 06:13:00,
2013-09-28 06:22:00,49.0,41.0,-100.00,North,0,17.0,25.0,73,-99.99,,,-99.99,,2013-09-28 06:22:00,
2013-09-28 06:32:00,49.0,41.0,-100.00,North,0,17.0,25.0,73,-99.99,,,-99.99,,2013-09-28 06:32:00,
2013-09-28 06:42:00,49.0,41.0,-100.00,North,0,17.0,25.0,73,-99.99,,,-99.99,,2013-09-28 06:42:00,
2013-09-28 06:52:00,49.0,40.0,-100.00,North,0,11.0,20.0,70,-99.99,,,-99.99,,2013-09-28 06:52:00,
2013-09-28 07:02:00,49.0,40.0,-100.00,North,0,11.0,20.0,70,-99.99,,,-99.99,,2013-09-28 07:02:00,
2013-09-28 07:12:00,49.0,40.0,-100.00,North,0,11.0,20.0,70,-99.99,,,-99.99,,2013-09-28 07:12:00,
2013-09-28 07:22:00,49.0,40.0,-100.00,North,0,10.0,15.0,69,-99.99,,,-99.99,,2013-09-28 07:22:00,
2013-09-28 07:32:00,49.0,40.0,-100.00,North,0,10.0,15.0,69,-99.99,,,-99.99,,2013-09-28 07:32:00,
2013-09-28 07:42:00,49.0,40.0,-100.00,North,0,10.0,15.0,69,-99.99,,,-99.99,,2013-09-28 07:42:00,
2013-09-28 07:52:00,50.0,39.0,-100.00,North,350,20.0,26.0,64,-99.99,,,-99.99,,2013-09-28 07:52:00,
2013-09-28 08:02:00,50.0,39.0,-100.00,North,350,20.0,26.0,64,-99.99,,,-99.99,,2013-09-28 08:02:00,
2013-09-28 08:13:00,50.0,39.0,-100.00,North,350,20.0,26.0,64,-99.99,,,-99.99,,2013-09-28 08:13:00,
2013-09-28 08:21:00,51.0,37.0,-100.00,North,350,19.0,32.0,59,-99.99,,,-99.99,,2013-09-28 08:21:00,
2013-09-28 08:32:00,51.0,37.0,-100.00,North,350,19.0,32.0,59,-99.99,,,-99.99,,2013-09-28 08:32:00,
2013-09-28 08:43:00,51.0,37.0,-100.00,North,350,19.0,32.0,59,-99.99,,,-99.99,,2013-09-28 08:43:00,
2013-09-28 08:53:00,50.0,38.0,-100.00,North,350,20.0,28.0,64,-99.99,,,-99.99,,2013-09-28 08:53:00,
2013-09-28 09:01:00,50.0,38.0,-100.00,North,350,20.0,28.0,64,-99.99,,,-99.99,,2013-09-28 09:01:00,
2013-09-28 09:11:00,50.0,38.0,-100.00,North,350,20.0,28.0,64,-99.99,,,-99.99,,2013-09-28 09:11:00,
2013-09-28 09:22:00,50.0,38.0,-100.00,NNW,340,15.0,21.0,65,-99.99,,,-99.99,,2013-09-28 09:22:00,
2013-09-28 09:33:00,50.0,38.0,-100.00,NNW,340,15.0,21.0,65,-99.99,,,-99.99,,2013-09-28 09:33:00,
2013-09-28 09:43:00,50.0,38.0,-100.00,NNW,340,15.0,21.0,65,-99.99,,,-99.99,,2013-09-28 09:43:00,
2013-09-28 09:54:00,50.0,38.0,-100.00,North,355,17.0,22.0,63,-99.99,,,-99.99,,2013-09-28 09:54:00,
2013-09-28 10:03:00,50.0,38.0,-100.00,North,355,17.0,22.0,63,-99.99,,,-99.99,,2013-09-28 10:03:00,
2013-09-28 10:12:00,50.0,38.0,-100.00,North,355,17.0,22.0,63,-99.99,,,-99.99,,2013-09-28 10:12:00,
2013-09-28 10:22:00,51.0,38.0,-100.00,NNW,345,17.0,25.0,60,-99.99,,,-99.99,,2013-09-28 10:22:00,
2013-09-28 10:32:00,51.0,38.0,-100.00,NNW,345,17.0,25.0,60,-99.99,,,-99.99,,2013-09-28 10:32:00,
2013-09-28 10:42:00,51.0,38.0,-100.00,NNW,345,17.0,25.0,60,-99.99,,,-99.99,,2013-09-28 10:42:00,
2013-09-28 10:52:00,51.0,37.0,-100.00,NNW,340,16.0,22.0,58,-99.99,,,-99.99,,2013-09-28 10:52:00,
2013-09-28 11:03:00,51.0,37.0,-100.00,NNW,340,16.0,22.0,58,-99.99,,,-99.99,,2013-09-28 11:03:00,
2013-09-28 11:12:00,51.0,37.0,-100.00,NNW,340,16.0,22.0,58,-99.99,,,-99.99,,2013-09-28 11:12:00,
2013-09-28 11:22:00,50.0,37.0,-100.00,NNW,340,11.0,16.0,60,-99.99,,,-99.99,,2013-09-28 11:22:00,
2013-09-28 11:33:00,50.0,37.0,-100.00,NNW,340,11.0,16.0,60,-99.99,,,-99.99,,2013-09-28 11:33:00,
2013-09-28 11:42:00,50.0,37.0,-100.00,NNW,340,11.0,16.0,60,-99.99,,,-99.99,,2013-09-28 11:42:00,
2013-09-28 11:52:00,50.0,37.0,-100.00,NW,315,11.0,17.0,60,-99.99,,,-99.99,,2013-09-28 11:52:00,
2013-09-28 12:01:00,50.0,37.0,-100.00,NW,315,11.0,17.0,60,-99.99,,,-99.99,,2013-09-28 12:01:00,
2013-09-28 12:12:00,50.0,37.0,-100.00,NW,315,11.0,17.0,60,-99.99,,,-99.99,,2013-09-28 12:12:00,
2013-09-28 12:22:00,50.0,37.0,-100.00,NW,325,11.0,18.0,60,-99.99,,,-99.99,,2013-09-28 12:22:00,
2013-09-28 12:32:00,50.0,37.0,-100.00,NW,325,11.0,18.0,60,-99.99,,,-99.99,,2013-09-28 12:32:00,
2013-09-28 12:42:00,50.0,37.0,-100.00,NW,325,11.0,18.0,60,-99.99,,,-99.99,,2013-09-28 12:42:00,
2013-09-28 12:52:00,50.0,37.0,-100.00,NW,310,7.0,16.0,61,-99.99,,,-99.99,,2013-09-28 12:52:00,
2013-09-28 13:02:00,50.0,37.0,-100.00,NW,310,7.0,16.0,61,-99.99,,,-99.99,,2013-09-28 13:02:00,
2013-09-28 13:12:00,50.0,37.0,-100.00,NW,310,7.0,16.0,61,-99.99,,,-99.99,,2013-09-28 13:12:00,
2013-09-28 13:21:00,50.0,36.0,-100.00,NW,320,9.0,14.0,59,-99.99,,,-99.99,,2013-09-28 13:21:00,
2013-09-28 13:32:00,50.0,36.0,-100.00,NW,320,9.0,14.0,59,-99.99,,,-99.99,,2013-09-28 13:32:00,
2013-09-28 13:42:00,50.0,36.0,-100.00,NW,320,9.0,14.0,59,-99.99,,,-99.99,,2013-09-28 13:42:00,
2013-09-28 13:52:00,50.0,36.0,-100.00,NW,325,10.0,17.0,59,-99.99,,,-99.99,,2013-09-28 13:52:00,
2013-09-28 14:02:00,50.0,36.0,-100.00,NW,325,10.0,17.0,59,-99.99,,,-99.99,,2013-09-28 14:02:00,
2013-09-28 14:12:00,50.0,36.0,-100.00,NW,325,10.0,17.0,59,-99.99,,,-99.99,,2013-09-28 14:12:00,
2013-09-28 14:21:00,49.0,36.0,-100.00,NW,320,1.0,9.0,61,-99.99,,,-99.99,,2013-09-28 14:21:00,
2013-09-28 14:32:00,49.0,36.0,-100.00,NW,320,1.0,9.0,61,-99.99,,,-99.99,,2013-09-28 14:32:00,
2013-09-28 14:42:00,49.0,36.0,-100.00,NW,320,1.0,9.0,61,-99.99,,,-99.99,,2013-09-28 14:42:00,
2013-09-28 14:52:00,49.0,36.0,-100.00,NNW,345,2.0,5.0,61,-99.99,,,-99.99,,2013-09-28 14:52:00,
2013-09-28 15:02:00,49.0,36.0,-100.00,NNW,345,2.0,5.0,61,-99.99,,,-99.99,,2013-09-28 15:02:00,
2013-09-28 15:12:00,49.0,36.0,-100.00,NNW,345,2.0,5.0,61,-99.99,,,-99.99,,2013-09-28 15:12:00,
2013-09-28 15:22:00,49.0,36.0,-100.00,NNW,335,2.0,3.0,62,-99.99,,,-99.99,,2013-09-28 15:22:00,
2013-09-28 15:34:00,49.0,36.0,-100.00,NNW,335,2.0,3.0,62,-99.99,,,-99.99,,2013-09-28 15:34:00,
2013-09-28 15:44:00,49.0,36.0,-100.00,NNW,335,2.0,3.0,62,-99.99,,,-99.99,,2013-09-28 15:44:00,
2013-09-28 15:54:00,48.0,36.0,-100.00,West,280,0.0,4.0,64,-99.99,,,-99.99,,2013-09-28 15:54:00,
2013-09-28 16:05:00,48.0,36.0,-100.00,West,280,0.0,4.0,64,-99.99,,,-99.99,,2013-09-28 16:05:00,
2013-09-28 16:14:00,48.0,36.0,-100.00,West,280,0.0,4.0,64,-99.99,,,-99.99,,2013-09-28 16:14:00,
2013-09-28 16:24:00,48.0,37.0,-100.00,NW,315,4.0,7.0,65,-99.99,,,-99.99,,2013-09-28 16:24:00,
2013-09-28 16:34:00,48.0,37.0,-100.00,NW,315,4.0,7.0,65,-99.99,,,-99.99,,2013-09-28 16:34:00,
2013-09-28 16:43:00,48.0,37.0,-100.00,NW,315,4.0,7.0,65,-99.99,,,-99.99,,2013-09-28 16:43:00,
2013-09-28 16:54:00,48.0,37.0,-100.00,NNW,340,6.0,11.0,65,-99.99,,,-99.99,,2013-09-28 16:54:00,
2013-09-28 17:03:00,48.0,37.0,-100.00,NNW,340,6.0,11.0,65,-99.99,,,-99.99,,2013-09-28 17:03:00,
2013-09-28 17:13:00,48.0,37.0,-100.00,NNW,340,6.0,11.0,65,-99.99,,,-99.99,,2013-09-28 17:13:00,
2013-09-28 17:23:00,48.0,37.0,-100.00,North,0,6.0,10.0,64,-99.99,,,-99.99,,2013-09-28 17:23:00,
2013-09-28 17:34:00,48.0,37.0,-100.00,North,0,6.0,10.0,64,-99.99,,,-99.99,,2013-09-28 17:34:00,
2013-09-28 17:43:00,48.0,37.0,-100.00,North,0,6.0,10.0,64,-99.99,,,-99.99,,2013-09-28 17:43:00,
2013-09-28 17:52:00,48.0,37.0,-100.00,ENE,70,0.0,4.0,64,-99.99,,,-99.99,,2013-09-28 17:52:00,
2013-09-28 18:02:00,48.0,37.0,-100.00,ENE,70,0.0,4.0,64,-99.99,,,-99.99,,2013-09-28 18:02:00,
2013-09-28 18:12:00,48.0,37.0,-100.00,ENE,70,0.0,4.0,64,-99.99,,,-99.99,,2013-09-28 18:12:00,
2013-09-28 18:22:00,49.0,37.0,-100.00,North,10,0.0,5.0,65,-99.99,,,-99.99,,2013-09-28 18:22:00,
2013-09-28 18:32:00,49.0,37.0,-100.00,North,10,0.0,5.0,65,-99.99,,,-99.99,,2013-09-28 18:32:00,
2013-09-28 18:42:00,49.0,37.0,-100.00,North,10,0.0,5.0,65,-99.99,,,-99.99,,2013-09-28 18:42:00,
2013-09-28 18:52:00,48.0,40.0,-100.00,SSW,195,2.0,3.0,72,-99.99,,,-99.99,,2013-09-28 18:52:00,
2013-09-28 19:02:00,48.0,40.0,-100.00,SSW,195,2.0,3.0,72,-99.99,,,-99.99,,2013-09-28 19:02:00,
2013-09-28 19:11:00,48.0,40.0,-100.00,SSW,195,2.0,3.0,72,-99.99,,,-99.99,,2013-09-28 19:11:00,
2013-09-28 19:21:00,48.0,39.0,-100.00,ENE,70,3.0,4.0,70,-99.99,,,-99.99,,2013-09-28 19:21:00,
2013-09-28 19:32:00,48.0,39.0,-100.00,ENE,70,3.0,4.0,70,-99.99,,,-99.99,,2013-09-28 19:32:00,
2013-09-28 19:42:00,48.0,39.0,-100.00,ENE,70,3.0,4.0,70,-99.99,,,-99.99,,2013-09-28 19:42:00,
2013-09-28 19:52:00,49.0,39.0,-100.00,NW,320,1.0,5.0,68,-99.99,,,-99.99,,2013-09-28 19:52:00,
2013-09-28 20:02:00,49.0,39.0,-100.00,NW,320,1.0,5.0,68,-99.99,,,-99.99,,2013-09-28 20:02:00,
2013-09-28 20:12:00,49.0,39.0,-100.00,NW,320,1.0,5.0,68,-99.99,,,-99.99,,2013-09-28 20:12:00,
2013-09-28 20:22:00,49.0,40.0,-100.00,WNW,285,1.0,5.0,70,-99.99,,,-99.99,,2013-09-28 20:22:00,
2013-09-28 20:33:00,49.0,40.0,-100.00,WNW,285,1.0,5.0,70,-99.99,,,-99.99,,2013-09-28 20:33:00,
2013-09-28 20:43:00,49.0,40.0,-100.00,WNW,285,1.0,5.0,70,-99.99,,,-99.99,,2013-09-28 20:43:00,
2013-09-28 20:52:00,49.0,40.0,-100.00,WNW,290,4.0,9.0,70,-99.99,,,-99.99,,2013-09-28 20:52:00,
2013-09-28 21:02:00,49.0,40.0,-100.00,WNW,290,4.0,9.0,70,-99.99,,,-99.99,,2013-09-28 21:02:00,
2013-09-28 21:12:00,49.0,40.0,-100.00,WNW,290,4.0,9.0,70,-99.99,,,-99.99,,2013-09-28 21:12:00,
2013-09-28 21:22:00,48.0,40.0,-100.00,NNW,330,4.0,7.0,73,-99.99,,,-99.99,,2013-09-28 21:22:00,
2013-09-28 21:34:00,48.0,40.0,-100.00,NNW,330,4.0,7.0,73,-99.99,,,-99.99,,2013-09-28 21:34:00,
2013-09-28 21:44:00,48.0,40.0,-100.00,NNW,330,4.0,7.0,73,-99.99,,,-99.99,,2013-09-28 21:44:00,
2013-09-28 21:55:00,47.0,40.0,-100.00,North,350,6.0,10.0,77,-99.99,,,-99.99,,2013-09-28 21:55:00,
2013-09-28 22:04:00,47.0,40.0,-100.00,North,350,6.0,10.0,77,-99.99,,,-99.99,,2013-09-28 22:04:00,
2013-09-28 22:13:00,47.0,40.0,-100.00,North,350,6.0,10.0,77,-99.99,,,-99.99,,2013-09-28 22:13:00,
2013-09-28 22:23:00,47.0,40.0,-100.00,NNW,335,7.0,9.0,77,-99.99,,,-99.99,,2013-09-28 22:23:00,
2013-09-28 22:33:00,47.0,40.0,-100.00,NNW,335,7.0,9.0,77,-99.99,,,-99.99,,2013-09-28 22:33:00,
2013-09-28 22:43:00,47.0,40.0,-100.00,NNW,335,7.0,9.0,77,-99.99,,,-99.99,,2013-09-28 22:43:00,
2013-09-28 22:53:00,47.0,41.0,-100.00,NNW,340,6.0,9.0,79,-99.99,,,-99.99,,2013-09-28 22:53:00,
2013-09-28 23:03:00,47.0,41.0,-100.00,NNW,340,6.0,9.0,79,-99.99,,,-99.99,,2013-09-28 23:03:00,
2013-09-28 23:12:00,47.0,41.0,-100.00,NNW,340,6.0,9.0,79,-99.99,,,-99.99,,2013-09-28 23:12:00,
2013-09-28 23:22:00,47.0,40.0,-100.00,NW,325,4.0,10.0,78,-99.99,,,-99.99,,2013-09-28 23:22:00,
2013-09-28 23:34:00,47.0,40.0,-100.00,NW,325,4.0,10.0,78,-99.99,,,-99.99,,2013-09-28 23:34:00,
2013-09-28 23:43:00,47.0,40.0,-100.00,NW,325,4.0,10.0,78,-99.99,,,-99.99,,2013-09-28 23:43:00,
2013-09-28 23:52:00,46.0,39.0,-100.00,NW,320,11.0,16.0,74,-99.99,,,-99.99,,2013-09-28 23:52:00,